Portada
METAR-TAF:

METAR-TAF

Aeroports :

De Queen, Arkansas, Estats Units d'Amèrica

latitud: 34-02-49N, longitud: 094-23-58W, altitud: 108 m

Observació

L'informe es va fer fa 45 minuts, a les 04:53 UTC
Vent 5 kt del Est/Nord-Est
Temperatura 26°C
Humitat 79%
Pressió 1021 hPa
Visibilitat: 16.1 km
Escasses núvols a una alçada de 10000 ft

METAR: KDEQ 200453Z AUTO 06005KT 10SM FEW100 26/22 A3014 RMK AO2 RAB37E48 SLP201 P0000 T02560222

Hora: 00:38 (05:38 UTC)


TAF: manca

Observacions i pronòstics meteorològics de més de 4000 aeroports (METAR i TAF).

Les estacions disponibles són els punts grocs i vermells al mapa.

Posi el ratolí al punt desitjat per veure el nom de l'estació.

Feu clic per veure les observacions i els pronòstics meteorològics.

Per canviar el mapa: feu clic els botons verds amb una creu de color negre per apropar; al botó verd amb un guió per allunyar la imatge; o en les fletxes verdes per a mapes adjacents.


METAR-TAF: